Terminal Aerodrome Forecast
Issued by NWS Nashville, TN

Home | Current Version | Previous Version | Text Only | Print | Product List | Glossary On
Versions: 1 2 3 4 5 6 7 8 9 10 11 12 13 14 15 16 17 18 19 20 21 22 23 24 25
000
FTUS44 KOHX 260500
TAFCSV
TAF
KCSV 260532Z 2606/2706 27008KT 4SM -SHRA BR BKN008 OVC014
      TEMPO 2611/2614 -RASN
     FM261400 32011G22KT 5SM -SN BR OVC005
     FM262000 31012G24KT P6SM OVC015=

USA.gov is the U.S. government's official web portal to all federal, state and local government web resources and services.